Time;durP1;ratioP1;P1;durP2;ratioP2;P2;SDS_P1;SDS_P2;PMS_P1;PMS_P2;Temp;Humidity;BMP_temperature;BMP_pressure;BME280_temperature;BME280_humidity;BME280_pressure;Samples;Min_cycle;Max_cycle;Signal;HPM_P1;HPM_P2
2023/07/31 00:01:05;;;;;;;;;;;;;;;18.39;60.62;100346.40;105727;1289;71625;-87
2023/07/31 00:04:32;;;;;;;;;;;;;;;18.37;60.78;100339.86;105749;1285;68039;-87
2023/07/31 00:07:58;;;;;;;;;;;;;;;18.32;60.97;100334.52;105771;1285;72082;-86
2023/07/31 00:11:24;;;;;;;;;;;;;;;18.24;61.05;100331.61;105693;1284;59272;-87
2023/07/31 00:14:50;;;;;;;;;;;;;;;18.18;61.07;100335.65;105752;1288;59834;-87
2023/07/31 00:18:16;;;;;;;;;;;;;;;18.11;61.15;100345.09;105692;1286;71593;-87
2023/07/31 00:21:42;;;;;;;;;;;;;;;18.06;61.17;100346.04;105775;1286;67279;-87
2023/07/31 00:25:08;;;;;;;;;;;;;;;18.04;61.32;100355.92;105817;1286;71165;-87
2023/07/31 00:28:35;;;;;;;;;;;;;;;18.01;61.36;100356.07;105722;1289;60399;-87
2023/07/31 00:32:01;;;;;;;;;;;;;;;17.97;61.41;100359.05;105939;1288;60328;-87
2023/07/31 00:35:27;;;;;;;;;;;;;;;17.90;61.48;100356.10;105756;1283;75160;-87
2023/07/31 00:38:54;;;;;;;;;;;;;;;17.86;61.60;100359.42;105780;1285;67366;-87
2023/07/31 00:42:20;;;;;;;;;;;;;;;17.81;61.70;100355.83;105873;1288;70405;-87
2023/07/31 00:45:46;;;;;;;;;;;;;;;17.78;61.88;100354.96;105730;1289;60424;-87
2023/07/31 00:49:12;;;;;;;;;;;;;;;17.72;61.80;100356.64;105783;1286;60496;-87
2023/07/31 00:52:39;;;;;;;;;;;;;;;17.69;61.85;100358.88;105825;1286;72390;-87
2023/07/31 00:56:05;;;;;;;;;;;;;;;17.64;61.98;100357.73;105755;1285;67156;-87
2023/07/31 00:59:31;;;;;;;;;;;;;;;17.59;62.16;100353.65;105851;1288;71308;-87
2023/07/31 01:02:58;;;;;;;;;;;;;;;17.54;62.07;100359.95;105742;1285;59279;-87
2023/07/31 01:06:23;;;;;;;;;;;;;;;17.49;62.29;100357.79;105784;1284;60291;-87
2023/07/31 01:09:55;;;;;;;;;;;;;;;17.47;62.36;100354.40;105771;1285;75280;-87
2023/07/31 01:13:22;;;;;;;;;;;;;;;17.47;62.29;100352.80;105795;1285;68322;-87
2023/07/31 01:16:48;;;;;;;;;;;;;;;17.42;62.42;100353.94;105850;1286;72396;-86
2023/07/31 01:20:14;;;;;;;;;;;;;;;17.38;62.45;100349.41;105715;1286;59164;-86
2023/07/31 01:23:53;;;;;;;;;;;;;;;17.35;62.48;100351.33;105800;1286;60328;-86
2023/07/31 01:27:35;;;;;;;;;;;;;;;17.32;62.63;100352.66;105047;1296;72458;-86
2023/07/31 01:31:01;;;;;;;;;;;;;;;17.29;62.79;100350.77;105005;1296;69393;-86
2023/07/31 01:34:27;;;;;;;;;;;;;;;17.25;62.79;100348.17;105048;1293;71184;-86
2023/07/31 01:37:54;;;;;;;;;;;;;;;17.24;62.83;100341.56;104981;1296;60307;-86
2023/07/31 01:41:20;;;;;;;;;;;;;;;17.21;62.82;100341.86;105038;1294;60502;-86
2023/07/31 01:44:46;;;;;;;;;;;;;;;17.19;62.97;100341.27;105015;1293;73547;-86
2023/07/31 01:48:12;;;;;;;;;;;;;;;17.13;62.99;100340.70;105078;1294;68163;-87
2023/07/31 01:51:39;;;;;;;;;;;;;;;17.08;63.13;100337.64;104995;1291;71096;-86
2023/07/31 01:55:05;;;;;;;;;;;;;;;17.04;63.11;100337.48;104987;1294;60347;-86
2023/07/31 01:58:31;;;;;;;;;;;;;;;17.03;63.28;100343.83;104784;1295;60464;-87
2023/07/31 02:01:58;;;;;;;;;;;;;;;16.98;63.23;100345.59;104898;1290;75146;-86
2023/07/31 02:05:24;;;;;;;;;;;;;;;16.95;63.29;100346.80;105375;1288;67193;-86
2023/07/31 02:08:50;;;;;;;;;;;;;;;16.92;63.41;100348.67;105301;1293;70793;-86
2023/07/31 02:12:17;;;;;;;;;;;;;;;16.90;63.36;100348.23;105294;1288;61212;-86
2023/07/31 02:15:43;;;;;;;;;;;;;;;16.89;63.56;100346.19;105353;1288;60321;-86
2023/07/31 02:19:09;;;;;;;;;;;;;;;16.88;63.54;100346.95;105337;1288;73998;-86
2023/07/31 02:22:36;;;;;;;;;;;;;;;16.86;63.58;100349.44;105361;1288;67896;-86
2023/07/31 02:26:02;;;;;;;;;;;;;;;16.86;63.57;100342.84;105320;1288;72825;-86
2023/07/31 02:29:29;;;;;;;;;;;;;;;16.84;63.66;100346.94;101325;1291;5163382;-87
2023/07/31 02:32:55;;;;;;;;;;;;;;;16.83;63.70;100345.77;105109;1291;72403;-86
2023/07/31 02:36:21;;;;;;;;;;;;;;;16.81;63.76;100342.59;105138;1297;67344;-86
2023/07/31 02:39:48;;;;;;;;;;;;;;;16.77;63.74;100337.18;105108;1291;71194;-87
2023/07/31 02:43:14;;;;;;;;;;;;;;;16.75;63.78;100335.04;105278;1289;60333;-87
2023/07/31 02:46:40;;;;;;;;;;;;;;;16.72;63.78;100338.13;105387;1288;60614;-87
2023/07/31 02:50:06;;;;;;;;;;;;;;;16.66;63.99;100336.99;105358;1288;72519;-87
2023/07/31 02:53:33;;;;;;;;;;;;;;;16.66;63.98;100340.67;104892;1294;67720;-87
2023/07/31 02:56:59;;;;;;;;;;;;;;;16.66;64.02;100342.39;104918;1294;72072;-86
2023/07/31 03:00:25;;;;;;;;;;;;;;;16.66;64.01;100345.19;104874;1296;59230;-86
2023/07/31 03:03:52;;;;;;;;;;;;;;;16.64;64.10;100343.67;104846;1294;60346;-87
2023/07/31 03:07:18;;;;;;;;;;;;;;;16.62;64.18;100343.43;104907;1299;72392;-86
2023/07/31 03:10:44;;;;;;;;;;;;;;;16.61;64.21;100344.55;104777;1296;70672;-86
2023/07/31 03:14:11;;;;;;;;;;;;;;;16.61;64.36;100346.09;104834;1300;75349;-86
2023/07/31 03:17:37;;;;;;;;;;;;;;;16.61;64.37;100348.73;104779;1298;60465;-86
2023/07/31 03:21:03;;;;;;;;;;;;;;;16.61;64.45;100346.98;104883;1297;59180;-86
2023/07/31 03:24:29;;;;;;;;;;;;;;;16.62;64.51;100347.27;104802;1295;72506;-86
2023/07/31 03:27:56;;;;;;;;;;;;;;;16.62;64.42;100346.02;104805;1295;67154;-86
2023/07/31 03:31:22;;;;;;;;;;;;;;;16.63;64.50;100344.61;105191;1289;71543;-86
2023/07/31 03:34:49;;;;;;;;;;;;;;;16.63;64.65;100339.41;105216;1292;60476;-87
2023/07/31 03:38:15;;;;;;;;;;;;;;;16.63;64.55;100348.61;105242;1289;58743;-86
2023/07/31 03:41:41;;;;;;;;;;;;;;;16.65;64.72;100351.83;105318;1292;75192;-86
2023/07/31 03:45:07;;;;;;;;;;;;;;;16.66;64.79;100357.89;105263;1292;67461;-86
2023/07/31 03:48:33;;;;;;;;;;;;;;;16.66;64.70;100353.89;105052;1291;71184;-86
2023/07/31 03:51:59;;;;;;;;;;;;;;;16.63;64.85;100363.55;105133;1291;60278;-86
2023/07/31 03:55:25;;;;;;;;;;;;;;;16.64;64.86;100365.25;105108;1291;60643;-87
2023/07/31 03:58:52;;;;;;;;;;;;;;;16.67;64.92;100361.98;105150;1291;73892;-87
2023/07/31 04:02:18;;;;;;;;;;;;;;;16.67;64.97;100355.20;104616;1301;66241;-87
2023/07/31 04:05:45;;;;;;;;;;;;;;;16.73;64.95;100357.88;104530;1297;71882;-87
2023/07/31 04:09:11;;;;;;;;;;;;;;;16.78;64.92;100364.79;104504;1299;59116;-86
2023/07/31 04:12:37;;;;;;;;;;;;;;;16.84;65.10;100360.52;104665;1298;62859;-86
2023/07/31 04:16:04;;;;;;;;;;;;;;;16.88;65.07;100356.15;104587;1300;72721;-87
2023/07/31 04:19:30;;;;;;;;;;;;;;;16.95;65.19;100347.33;104782;1294;68403;-86
2023/07/31 04:22:57;;;;;;;;;;;;;;;17.00;65.21;100352.50;104918;1294;70569;-86
2023/07/31 04:26:23;;;;;;;;;;;;;;;17.06;65.33;100360.91;104902;1294;59021;-86
2023/07/31 04:29:50;;;;;;;;;;;;;;;17.08;65.33;100361.67;104496;1301;60364;-86
2023/07/31 04:33:16;;;;;;;;;;;;;;;17.11;65.39;100361.04;104325;1301;72609;-86
2023/07/31 04:36:42;;;;;;;;;;;;;;;17.16;65.32;100362.85;104422;1300;67334;-86
2023/07/31 04:40:09;;;;;;;;;;;;;;;17.20;65.36;100356.90;104768;1295;71310;-86
2023/07/31 04:43:38;;;;;;;;;;;;;;;17.25;65.41;100354.08;104383;1304;60571;-87
2023/07/31 04:47:02;;;;;;;;;;;;;;;17.27;65.45;100354.84;103920;1308;61280;-87
2023/07/31 04:50:30;;;;;;;;;;;;;;;17.30;65.48;100351.90;103068;1315;75012;-86
2023/07/31 04:53:24;;;;;;;;;;;;;;;17.36;65.56;100357.20;105475;1291;67082;-86
2023/07/31 04:56:50;;;;;;;;;;;;;;;17.47;65.53;100354.38;105309;1289;71362;-86
2023/07/31 05:00:17;;;;;;;;;;;;;;;17.62;65.63;100351.06;105303;1293;59163;-86
2023/07/31 05:03:43;;;;;;;;;;;;;;;17.79;65.64;100349.84;104706;1298;61600;-87
2023/07/31 05:07:09;;;;;;;;;;;;;;;17.95;65.61;100353.42;104676;1298;72430;-87
2023/07/31 05:10:36;;;;;;;;;;;;;;;18.07;65.74;100351.39;104628;1297;68314;-86
2023/07/31 05:24:47;;;;;;;;;;;;;;;18.72;65.38;100325.45;104667;1293;66720;-87
2023/07/31 05:28:13;;;;;;;;;;;;;;;18.84;65.57;100322.67;104492;1300;71404;-87
2023/07/31 05:31:40;;;;;;;;;;;;;;;19.00;65.59;100323.55;104508;1304;60577;-86
2023/07/31 05:35:06;;;;;;;;;;;;;;;19.37;65.71;100316.36;104558;1300;60476;-87
2023/07/31 05:38:32;;;;;;;;;;;;;;;19.60;65.39;100320.15;104125;1305;72858;-88
2023/07/31 05:41:29;;;;;;;;;;;;;;;19.71;65.17;100327.55;105265;1291;66909;-87
2023/07/31 05:44:55;;;;;;;;;;;;;;;19.72;65.23;100327.13;105105;1291;72254;-87
2023/07/31 05:48:42;;;;;;;;;;;;;;;;;;;;;
2023/07/31 05:51:20;;;;;;;;;;;;;;;19.84;65.09;100329.54;105164;1296;60293;-88
2023/07/31 05:54:46;;;;;;;;;;;;;;;19.95;65.13;100328.37;105003;1294;74361;-89
2023/07/31 05:58:13;;;;;;;;;;;;;;;20.06;65.00;100325.05;105007;1294;67131;-87
2023/07/31 06:01:40;;;;;;;;;;;;;;;20.25;65.04;100326.39;104436;1300;71313;-87
2023/07/31 06:05:06;;;;;;;;;;;;;;;20.40;64.93;100323.86;104373;1300;59838;-88
2023/07/31 06:08:35;;;;;;;;;;;;;;;20.52;64.88;100321.77;104016;1311;59144;-87
2023/07/31 06:12:02;;;;;;;;;;;;;;;20.57;64.72;100321.98;104183;1306;72751;-88
2023/07/31 06:15:29;;;;;;;;;;;;;;;20.58;64.72;100322.08;103570;1314;69561;-88
2023/07/31 06:18:55;;;;;;;;;;;;;;;20.56;64.73;100323.58;103666;1312;72590;-88
2023/07/31 06:22:22;;;;;;;;;;;;;;;20.52;64.68;100317.52;103642;1311;60828;-88
2023/07/31 06:25:48;;;;;;;;;;;;;;;20.52;64.65;100317.05;102708;1320;59327;-87
2023/07/31 06:29:15;;;;;;;;;;;;;;;20.50;64.59;100320.09;102652;1320;72640;-88
2023/07/31 06:32:41;;;;;;;;;;;;;;;20.53;64.54;100313.79;102696;1321;68172;-88
2023/07/31 06:36:08;;;;;;;;;;;;;;;20.62;64.56;100312.39;102704;1321;74196;-87
2023/07/31 06:39:34;;;;;;;;;;;;;;;20.78;64.49;100310.81;102836;1318;59905;-88
2023/07/31 06:43:07;;;;;;;;;;;;;;;20.93;64.38;100305.14;103026;1315;60438;-87
2023/07/31 06:46:27;;;;;;;;;;;;;;;21.11;64.41;100299.91;103589;1312;72778;-88
2023/07/31 06:49:54;;;;;;;;;;;;;;;21.66;64.43;100302.79;103593;1312;70150;-87
2023/07/31 06:53:20;;;;;;;;;;;;;;;22.08;63.95;100296.74;104118;1304;72429;-87
2023/07/31 06:56:47;;;;;;;;;;;;;;;22.13;63.94;100297.80;104262;1302;60395;-88
2023/07/31 07:00:13;;;;;;;;;;;;;;;22.08;63.85;100298.85;104501;1302;58840;-88
2023/07/31 07:03:41;;;;;;;;;;;;;;;21.98;63.83;100295.15;104456;1300;72403;-87
2023/07/31 07:07:08;;;;;;;;;;;;;;;21.97;63.87;100298.71;100275;1303;68143;-88
2023/07/31 07:10:34;;;;;;;;;;;;;;;21.96;63.74;100295.99;104188;1303;60449;-88
2023/07/31 07:14:01;;;;;;;;;;;;;;;21.97;63.91;100294.52;104087;1305;60417;-87
2023/07/31 07:17:27;;;;;;;;;;;;;;;22.03;63.60;100298.01;104205;1306;75262;-87
2023/07/31 07:20:54;;;;;;;;;;;;;;;22.15;63.46;100298.06;103587;1314;72133;-88
2023/07/31 07:24:20;;;;;;;;;;;;;;;22.08;63.22;100299.90;103830;1311;72120;-88
2023/07/31 07:27:47;;;;;;;;;;;;;;;22.08;63.19;100294.83;103594;1312;60389;-88
2023/07/31 07:31:13;;;;;;;;;;;;;;;22.34;63.10;100288.30;103685;1311;60565;-87
2023/07/31 07:34:40;;;;;;;;;;;;;;;22.50;62.81;100291.34;103461;1312;74694;-88
2023/07/31 07:38:06;;;;;;;;;;;;;;;22.44;62.52;100293.15;103665;1312;69123;-88
2023/07/31 07:41:33;;;;;;;;;;;;;;;22.34;62.55;100295.64;103773;1309;73475;-88
2023/07/31 07:44:59;;;;;;;;;;;;;;;22.27;62.67;100290.91;104122;1300;60681;-88
2023/07/31 07:48:26;;;;;;;;;;;;;;;22.13;62.57;100296.58;104532;1303;60342;-88
2023/07/31 07:51:52;;;;;;;;;;;;;;;22.07;62.62;100292.81;104015;1309;74467;-87
2023/07/31 07:55:19;;;;;;;;;;;;;;;21.92;62.38;100295.02;103873;1309;68275;-88
2023/07/31 07:58:46;;;;;;;;;;;;;;;21.75;62.41;100293.70;104347;1300;71213;-88
2023/07/31 08:02:12;;;;;;;;;;;;;;;21.60;62.37;100299.13;104398;1303;60419;-88
2023/07/31 08:05:39;;;;;;;;;;;;;;;21.47;62.37;100294.55;104428;1302;60391;-88
2023/07/31 08:09:08;;;;;;;;;;;;;;;21.41;62.50;100298.48;104360;1303;73983;-87
2023/07/31 08:12:34;;;;;;;;;;;;;;;21.36;62.40;100300.92;103956;1308;67537;-87
2023/07/31 08:16:03;;;;;;;;;;;;;;;21.25;62.48;100308.54;103987;1311;72825;-88
2023/07/31 08:19:29;;;;;;;;;;;;;;;21.13;62.43;100309.40;103617;1311;59192;-88
2023/07/31 08:22:56;;;;;;;;;;;;;;;21.13;62.56;100305.73;103791;1309;59337;-88
2023/07/31 08:26:22;;;;;;;;;;;;;;;21.22;62.42;100306.25;103519;1310;73885;-88
2023/07/31 08:29:49;;;;;;;;;;;;;;;21.21;62.37;100308.80;104127;1305;68402;-88
2023/07/31 08:33:15;;;;;;;;;;;;;;;21.17;62.34;100306.73;104441;1305;71393;-88
2023/07/31 08:36:42;;;;;;;;;;;;;;;21.14;62.35;100308.15;104131;1305;59283;-88
2023/07/31 08:40:08;;;;;;;;;;;;;;;21.15;62.38;100306.51;104149;1306;59219;-88
2023/07/31 08:43:35;;;;;;;;;;;;;;;21.10;62.35;100304.52;103516;1311;72373;-87
2023/07/31 08:47:01;;;;;;;;;;;;;;;21.03;62.34;100303.79;103571;1311;67365;-88
2023/07/31 08:50:28;;;;;;;;;;;;;;;20.94;62.33;100295.43;103703;1308;71427;-87
2023/07/31 08:53:55;;;;;;;;;;;;;;;20.82;62.17;100298.09;103910;1307;59199;-87
2023/07/31 08:57:21;;;;;;;;;;;;;;;20.78;62.45;100295.61;103877;1309;62567;-88
2023/07/31 09:00:48;;;;;;;;;;;;;;;20.76;62.23;100293.09;103973;1309;72510;-88
2023/07/31 09:04:14;;;;;;;;;;;;;;;20.72;62.32;100290.02;104021;1308;68598;-87
2023/07/31 09:07:40;;;;;;;;;;;;;;;20.76;62.41;100280.49;103917;1308;71452;-88
2023/07/31 09:11:07;;;;;;;;;;;;;;;20.80;62.33;100277.34;103892;1308;59528;-87
2023/07/31 09:14:34;;;;;;;;;;;;;;;20.85;62.11;100279.67;103919;1309;61395;-88
2023/07/31 09:18:00;;;;;;;;;;;;;;;20.96;62.12;100278.98;103877;1308;73017;-88
2023/07/31 09:21:27;;;;;;;;;;;;;;;21.07;62.18;100279.31;104336;1304;67417;-88
2023/07/31 09:24:53;;;;;;;;;;;;;;;21.07;61.86;100273.88;104515;1300;71879;-88
2023/07/31 09:28:20;;;;;;;;;;;;;;;21.05;61.98;100280.34;104385;1302;60481;-88
2023/07/31 09:31:58;;;;;;;;;;;;;;;20.96;61.83;100275.83;104474;1301;59223;-88
2023/07/31 09:35:27;;;;;;;;;;;;;;;20.90;62.09;100278.33;104436;1300;71340;-88
2023/07/31 09:38:54;;;;;;;;;;;;;;;20.85;61.96;100280.39;104117;1306;67498;-88
2023/07/31 09:46:06;;;;;;;;;;;;;;;20.41;62.17;100297.90;103424;1314;58461;-88
2023/07/31 09:49:33;;;;;;;;;;;;;;;20.19;62.46;100297.50;103555;1311;60391;-87
2023/07/31 09:52:59;;;;;;;;;;;;;;;20.09;62.60;100298.83;103535;1311;73359;-87
2023/07/31 09:56:25;;;;;;;;;;;;;;;20.06;62.69;100299.67;103930;1312;68377;-88
2023/07/31 09:59:52;;;;;;;;;;;;;;;20.03;62.87;100297.08;103534;1314;71601;-87
2023/07/31 10:03:18;;;;;;;;;;;;;;;19.93;62.73;100290.70;103528;1312;60325;-88
2023/07/31 10:06:45;;;;;;;;;;;;;;;19.81;62.80;100286.69;104008;1306;59253;-88
2023/07/31 10:10:13;;;;;;;;;;;;;;;19.75;62.93;100287.77;103991;1311;73827;-88
2023/07/31 10:13:39;;;;;;;;;;;;;;;19.81;63.23;100281.92;104063;1306;68723;-87
2023/07/31 10:17:07;;;;;;;;;;;;;;;19.89;63.17;100277.63;104778;1299;73226;-87
2023/07/31 10:20:34;;;;;;;;;;;;;;;20.00;63.22;100272.39;104779;1297;60484;-87
2023/07/31 10:24:00;;;;;;;;;;;;;;;20.12;63.26;100265.38;105021;1294;60368;-87
2023/07/31 10:27:27;;;;;;;;;;;;;;;20.17;63.25;100263.15;105103;1292;73340;-87
2023/07/31 10:30:53;;;;;;;;;;;;;;;20.14;63.27;100259.64;105068;1295;67192;-87
2023/07/31 10:34:21;;;;;;;;;;;;;;;20.11;63.20;100260.90;104947;1294;72578;-87
2023/07/31 10:37:47;;;;;;;;;;;;;;;20.06;63.37;100257.14;105096;1294;60294;-87
2023/07/31 10:41:14;;;;;;;;;;;;;;;20.04;63.43;100255.90;105091;1293;59563;-87
2023/07/31 10:44:41;;;;;;;;;;;;;;;20.01;63.46;100255.56;105003;1294;73832;-87
2023/07/31 10:48:07;;;;;;;;;;;;;;;20.04;63.83;100253.79;105035;1293;68727;-87
2023/07/31 10:51:34;;;;;;;;;;;;;;;20.06;63.68;100253.33;105055;1294;71905;-87
2023/07/31 10:55:00;;;;;;;;;;;;;;;20.07;63.91;100247.15;105081;1295;59751;-87
2023/07/31 10:58:26;;;;;;;;;;;;;;;20.04;63.96;100244.52;105034;1293;60400;-87
2023/07/31 11:01:52;;;;;;;;;;;;;;;20.03;63.98;100245.29;105044;1294;72696;-87
2023/07/31 11:05:27;;;;;;;;;;;;;;;20.00;64.02;100238.48;104970;1295;69787;-87
2023/07/31 11:08:54;;;;;;;;;;;;;;;20.02;64.25;100236.05;105083;1293;71355;-87
2023/07/31 11:12:29;;;;;;;;;;;;;;;20.04;64.21;100234.01;104970;1299;60566;-88
2023/07/31 11:15:55;;;;;;;;;;;;;;;20.08;64.09;100226.58;104485;1302;60491;-88
2023/07/31 11:19:22;;;;;;;;;;;;;;;20.13;64.21;100221.02;104504;1302;73721;-87
2023/07/31 11:22:48;;;;;;;;;;;;;;;20.17;64.33;100221.52;104507;1302;68609;-87
2023/07/31 11:26:14;;;;;;;;;;;;;;;20.17;64.43;100218.34;104438;1302;72146;-88
2023/07/31 11:29:41;;;;;;;;;;;;;;;20.19;64.44;100213.65;104491;1301;60491;-88
2023/07/31 11:40:52;;;;;;;;;;;;;;;20.07;64.46;100209.13;105516;1294;72254;-89
2023/07/31 11:49:29;;;;;;;;;;;;;;;20.15;64.30;100202.34;105509;1292;72359;-89
2023/07/31 11:52:57;;;;;;;;;;;;;;;20.06;64.31;100204.17;104900;1295;69937;-89
2023/07/31 12:49:12;;;;;;;;;;;;;;;20.06;65.00;100163.89;104984;1291;68143;-89
2023/07/31 12:55:23;;;;;;;;;;;;;;;20.01;65.26;100158.08;105266;1291;58491;-89
2023/07/31 12:58:50;;;;;;;;;;;;;;;20.05;65.33;100155.58;104756;1297;59603;-89
2023/07/31 13:02:18;;;;;;;;;;;;;;;19.98;65.11;100153.54;104344;1303;72437;-89
2023/07/31 13:08:28;;;;;;;;;;;;;;;19.79;65.39;100149.45;105285;1296;72543;-88
2023/07/31 13:11:55;;;;;;;;;;;;;;;19.80;65.52;100143.27;105231;1293;61238;-88
2023/07/31 13:15:21;;;;;;;;;;;;;;;19.76;65.62;100140.88;105239;1291;60330;-87
2023/07/31 13:18:47;;;;;;;;;;;;;;;19.76;65.59;100137.56;105279;1290;73616;-87
2023/07/31 13:22:14;;;;;;;;;;;;;;;19.82;65.82;100132.17;105371;1290;68572;-87
2023/07/31 13:25:40;;;;;;;;;;;;;;;19.91;65.86;100128.33;105297;1291;72573;-87
2023/07/31 13:29:07;;;;;;;;;;;;;;;20.08;65.83;100125.46;105281;1293;60438;-87
2023/07/31 13:32:34;;;;;;;;;;;;;;;20.23;65.85;100118.17;105324;1293;61341;-88
2023/07/31 13:36:00;;;;;;;;;;;;;;;20.36;65.81;100119.41;105336;1291;73767;-87
2023/07/31 13:39:29;;;;;;;;;;;;;;;20.44;65.63;100119.47;105294;1291;69760;-88
2023/07/31 13:42:55;;;;;;;;;;;;;;;20.43;65.68;100113.58;105220;1291;73187;-90
2023/07/31 13:49:53;;;;;;;;;;;;;;;20.64;65.66;100102.23;104302;1303;60614;-90
2023/07/31 13:53:19;;;;;;;;;;;;;;;20.77;65.66;100098.86;104347;1304;72582;-88
2023/07/31 13:56:47;;;;;;;;;;;;;;;20.93;65.71;100101.17;104251;1308;67594;-88
2023/07/31 14:00:14;;;;;;;;;;;;;;;20.99;65.49;100102.16;104283;1304;72617;-88
2023/07/31 14:03:40;;;;;;;;;;;;;;;20.99;65.53;100100.23;103442;1312;60504;-88
2023/07/31 14:07:07;;;;;;;;;;;;;;;21.03;65.67;100100.98;103439;1313;60305;-88
2023/07/31 14:10:33;;;;;;;;;;;;;;;21.06;65.48;100095.20;103596;1312;75423;-88
2023/07/31 14:14:01;;;;;;;;;;;;;;;21.09;65.51;100089.68;103596;1310;68996;-88
2023/07/31 14:17:26;;;;;;;;;;;;;;;21.11;65.50;100085.16;103537;1312;70278;-88
2023/07/31 14:20:53;;;;;;;;;;;;;;;21.10;65.44;100088.40;103557;1312;60599;-88
2023/07/31 14:24:19;;;;;;;;;;;;;;;21.13;65.57;100086.30;103493;1311;60687;-88
2023/07/31 14:27:46;;;;;;;;;;;;;;;21.14;65.37;100083.41;104290;1300;72062;-88
2023/07/31 14:31:12;;;;;;;;;;;;;;;21.15;65.39;100089.65;104564;1299;67230;-88
2023/07/31 14:34:39;;;;;;;;;;;;;;;21.22;65.58;100081.68;104515;1299;71283;-88
2023/07/31 14:38:06;;;;;;;;;;;;;;;21.26;65.37;100084.53;104484;1299;60974;-88
2023/07/31 14:41:32;;;;;;;;;;;;;;;21.27;65.41;100082.41;104294;1303;60511;-88
2023/07/31 14:44:59;;;;;;;;;;;;;;;21.32;65.40;100083.77;104414;1301;73159;-88
2023/07/31 14:48:26;;;;;;;;;;;;;;;21.35;65.45;100073.37;104056;1305;67144;-88
2023/07/31 14:51:52;;;;;;;;;;;;;;;21.42;65.40;100062.21;104102;1305;71980;-89
2023/07/31 14:55:18;;;;;;;;;;;;;;;21.49;65.50;100058.90;104150;1305;60469;-89
2023/07/31 14:58:45;;;;;;;;;;;;;;;21.59;65.34;100056.63;104125;1306;60549;-88
2023/07/31 15:02:11;;;;;;;;;;;;;;;21.61;65.18;100053.18;104125;1305;72547;-88
2023/07/31 15:05:38;;;;;;;;;;;;;;;21.59;65.17;100054.86;104214;1311;68505;-88
2023/07/31 15:09:04;;;;;;;;;;;;;;;21.54;65.22;100058.40;104158;1306;71166;-88
2023/07/31 15:12:31;;;;;;;;;;;;;;;21.52;65.16;100058.05;104141;1305;60397;-88
2023/07/31 15:15:59;;;;;;;;;;;;;;;21.42;65.07;100054.65;104176;1306;60593;-88
2023/07/31 15:19:26;;;;;;;;;;;;;;;21.33;65.11;100047.58;104614;1299;72374;-88
2023/07/31 15:22:52;;;;;;;;;;;;;;;21.35;65.08;100043.22;104615;1299;68622;-89
2023/07/31 15:26:19;;;;;;;;;;;;;;;21.37;65.17;100036.96;105009;1291;73604;-88
2023/07/31 15:29:45;;;;;;;;;;;;;;;21.37;64.98;100032.36;105154;1291;60558;-88
2023/07/31 15:33:13;;;;;;;;;;;;;;;21.35;64.96;100036.73;105071;1290;74748;-88
2023/07/31 15:36:40;;;;;;;;;;;;;;;21.30;64.96;100035.89;105069;1291;72392;-89
2023/07/31 15:40:06;;;;;;;;;;;;;;;21.29;65.10;100031.79;105112;1291;66632;-88
2023/07/31 15:43:33;;;;;;;;;;;;;;;21.27;65.06;100026.30;104659;1297;70100;-88
2023/07/31 15:46:59;;;;;;;;;;;;;;;21.22;65.00;100019.27;104704;1297;60308;-88
2023/07/31 15:50:28;;;;;;;;;;;;;;;21.17;65.03;100013.46;104689;1298;60524;-89
2023/07/31 15:53:54;;;;;;;;;;;;;;;21.14;64.93;100022.23;104717;1298;72464;-88
2023/07/31 15:57:21;;;;;;;;;;;;;;;21.15;64.85;100015.50;104690;1298;70020;-88
2023/07/31 16:00:48;;;;;;;;;;;;;;;21.18;64.88;100014.08;104283;1303;73901;-88
2023/07/31 16:04:14;;;;;;;;;;;;;;;21.18;64.62;100004.80;104343;1305;60466;-88
2023/07/31 16:07:41;;;;;;;;;;;;;;;21.16;64.54;100004.59;104367;1303;61006;-88
2023/07/31 16:11:07;;;;;;;;;;;;;;;21.13;64.61;100001.08;104373;1301;75658;-87
2023/07/31 16:14:33;;;;;;;;;;;;;;;21.15;64.48;99995.34;104408;1301;69377;-88
2023/07/31 16:18:00;;;;;;;;;;;;;;;21.18;64.44;99990.75;104410;1301;72599;-88
2023/07/31 16:21:26;;;;;;;;;;;;;;;21.20;64.32;99989.23;104755;1297;60493;-88
2023/07/31 16:24:53;;;;;;;;;;;;;;;21.22;64.38;99989.30;104856;1295;60710;-88
2023/07/31 16:28:19;;;;;;;;;;;;;;;21.27;64.28;99993.50;104825;1295;75164;-88
2023/07/31 16:31:47;;;;;;;;;;;;;;;21.30;64.11;99991.69;104833;1295;68360;-88
2023/07/31 16:35:14;;;;;;;;;;;;;;;21.31;64.13;99991.94;104685;1295;72398;-88
2023/07/31 16:38:40;;;;;;;;;;;;;;;21.35;64.16;99994.84;105189;1292;60409;-90
2023/07/31 16:42:07;;;;;;;;;;;;;;;21.35;63.97;99995.70;105215;1290;61405;-90
2023/07/31 16:45:33;;;;;;;;;;;;;;;21.34;63.93;99996.44;105243;1291;73557;-90
2023/07/31 16:49:00;;;;;;;;;;;;;;;21.33;63.83;99989.17;105261;1291;69975;-90
2023/07/31 16:55:03;;;;;;;;;;;;;;;21.33;63.65;99982.33;105209;1292;59207;-88
2023/07/31 16:58:29;;;;;;;;;;;;;;;21.36;63.67;99975.82;104688;1301;60446;-88
2023/07/31 17:12:33;;;;;;;;;;;;;;;21.17;63.54;99973.69;101973;1289;58988;-88
2023/07/31 17:16:00;;;;;;;;;;;;;;;21.13;63.34;99976.71;105486;1289;73767;-87
2023/07/31 17:19:26;;;;;;;;;;;;;;;21.11;63.47;99974.95;105507;1288;67102;-87
2023/07/31 17:22:53;;;;;;;;;;;;;;;21.09;63.48;99977.14;105471;1289;71284;-87
2023/07/31 17:26:19;;;;;;;;;;;;;;;21.07;63.41;99982.76;105597;1289;60405;-87
2023/07/31 17:29:48;;;;;;;;;;;;;;;21.07;63.42;99986.44;105590;1288;61182;-87
2023/07/31 17:33:14;;;;;;;;;;;;;;;21.08;63.32;99986.39;104842;1296;72748;-87
2023/07/31 17:36:47;;;;;;;;;;;;;;;21.08;63.39;99980.79;104831;1296;67328;-88
2023/07/31 17:40:13;;;;;;;;;;;;;;;21.08;63.30;99978.47;104453;1301;72932;-88
2023/07/31 17:43:42;;;;;;;;;;;;;;;21.08;63.31;99977.95;104164;1306;61135;-88
2023/07/31 17:47:08;;;;;;;;;;;;;;;21.04;63.29;99984.36;103390;1312;60374;-88
2023/07/31 17:50:35;;;;;;;;;;;;;;;21.01;63.13;99983.05;103075;1318;75328;-88
2023/07/31 17:54:01;;;;;;;;;;;;;;;20.97;63.12;99979.96;103056;1316;67418;-87
2023/07/31 17:57:28;;;;;;;;;;;;;;;20.91;63.09;99974.59;102865;1319;71312;-88
2023/07/31 18:00:54;;;;;;;;;;;;;;;20.84;63.10;99973.83;102358;1324;59148;-88
2023/07/31 18:04:20;;;;;;;;;;;;;;;20.80;63.10;99982.02;102427;1327;60385;-87
2023/07/31 18:07:47;;;;;;;;;;;;;;;20.75;63.18;99978.67;102364;1324;75037;-88
2023/07/31 18:11:14;;;;;;;;;;;;;;;20.72;63.09;99980.50;102762;1321;67484;-88
2023/07/31 18:14:51;;;;;;;;;;;;;;;;;;;;;
2023/07/31 18:18:07;;;;;;;;;;;;;;;20.64;63.06;99973.14;102653;1321;59162;-87
2023/07/31 18:21:35;;;;;;;;;;;;;;;20.61;63.12;99966.00;102947;1318;59460;-88
2023/07/31 18:25:00;;;;;;;;;;;;;;;20.55;63.12;99964.17;103474;1314;72437;-88
2023/07/31 18:28:10;;;;;;;;;;;;;;;20.50;63.14;99959.54;104096;1306;67484;-85
2023/07/31 18:31:00;;;;;;;;;;;;;;;20.46;63.11;99958.77;104128;1304;72340;-85
2023/07/31 18:33:55;;;;;;;;;;;;;;;20.42;63.16;99952.58;103937;1305;58633;-85
2023/07/31 18:36:43;;;;;;;;;;;;;;;20.37;63.22;99950.27;104041;1299;60434;-85
2023/07/31 18:39:31;;;;;;;;;;;;;;;20.33;63.30;99943.89;105376;1299;73764;-85
2023/07/31 18:42:37;;;;;;;;;;;;;;;20.29;63.21;99941.33;105227;1299;68322;-86
2023/07/31 18:45:25;;;;;;;;;;;;;;;20.24;63.18;99939.63;104636;1301;71288;-85
2023/07/31 18:48:12;;;;;;;;;;;;;;;20.19;63.20;99936.61;104412;1299;61564;-85
2023/07/31 18:51:18;;;;;;;;;;;;;;;20.14;63.36;99938.31;104461;1299;60322;-85
2023/07/31 18:54:05;;;;;;;;;;;;;;;20.09;63.15;99931.69;105041;1286;74566;-85
2023/07/31 18:56:54;;;;;;;;;;;;;;;20.04;63.19;99934.45;105342;1289;67437;-85
2023/07/31 18:59:40;;;;;;;;;;;;;;;20.00;63.23;99933.70;105231;1289;72559;-85
2023/07/31 19:02:26;;;;;;;;;;;;;;;19.95;63.26;99938.59;105424;1291;60476;-85
2023/07/31 19:05:12;;;;;;;;;;;;;;;19.90;63.35;99933.84;105082;1288;270072;-85